createdAt,value
2022-10-13T00:00:19.885Z,132.40
2022-10-13T00:03:11.592Z,134.10
2022-10-13T00:05:45.341Z,134.70
2022-10-13T00:08:19.867Z,132.00
2022-10-13T00:10:52.895Z,139.90
2022-10-13T00:13:29.049Z,137.70
2022-10-13T00:16:03.174Z,141.20
2022-10-13T00:18:35.589Z,145.80
2022-10-13T00:21:11.803Z,147.30
2022-10-13T00:23:44.067Z,147.10
2022-10-13T00:26:16.815Z,136.30
2022-10-13T00:28:52.561Z,138.00
2022-10-13T00:31:27.516Z,132.40
2022-10-13T00:34:01.075Z,130.00
2022-10-13T00:36:33.113Z,145.10
2022-10-13T00:39:04.915Z,142.40
2022-10-13T00:41:37.247Z,141.90
2022-10-13T00:44:23.003Z,136.70
2022-10-13T00:46:54.736Z,134.40
2022-10-13T00:49:26.554Z,138.20
2022-10-13T00:51:58.968Z,139.50
2022-10-13T00:54:30.884Z,149.70
2022-10-13T00:57:04.138Z,129.80
2022-10-13T00:59:36.348Z,134.70
2022-10-13T01:02:08.980Z,126.00
2022-10-13T01:04:44.129Z,121.20
2022-10-13T01:07:17.345Z,125.10
2022-10-13T01:09:49.030Z,135.60
2022-10-13T01:12:33.070Z,139.40
2022-10-13T01:15:12.543Z,141.00
2022-10-13T01:17:55.131Z,133.20
2022-10-13T01:20:46.964Z,142.00
2022-10-13T01:23:54.733Z,123.40
2022-10-13T01:26:53.533Z,123.70
2022-10-13T01:29:55.366Z,115.40
2022-10-13T01:32:33.231Z,103.10
2022-10-13T01:35:10.802Z,112.40
2022-10-13T01:37:49.783Z,111.30
2022-10-13T01:40:27.267Z,118.10
2022-10-13T01:43:03.873Z,116.40
2022-10-13T01:45:40.867Z,116.20
2022-10-13T01:48:13.853Z,118.40
2022-10-13T01:50:47.568Z,121.80
2022-10-13T01:53:21.474Z,130.30
2022-10-13T01:56:00.298Z,111.10
2022-10-13T01:58:35.057Z,111.00
2022-10-13T02:01:21.762Z,103.10
2022-10-13T02:04:08.515Z,95.70
2022-10-13T02:06:46.031Z,96.40
2022-10-13T02:09:27.867Z,95.10
2022-10-13T02:12:07.852Z,83.40
2022-10-13T02:14:43.145Z,87.30
2022-10-13T02:17:16.417Z,93.00
2022-10-13T02:19:50.292Z,101.10
2022-10-13T02:22:24.307Z,98.40
2022-10-13T02:24:57.442Z,102.50
2022-10-13T02:27:29.548Z,91.50
2022-10-13T02:30:01.528Z,85.10
2022-10-13T02:32:34.762Z,82.00
2022-10-13T02:35:07.402Z,82.90
2022-10-13T02:37:39.202Z,81.50
2022-10-13T02:40:14.056Z,74.70
2022-10-13T02:42:47.764Z,78.90
2022-10-13T02:45:19.715Z,84.10
2022-10-13T02:47:51.476Z,78.00
2022-10-13T02:50:23.152Z,77.00
2022-10-13T02:52:55.362Z,81.50
2022-10-13T02:55:27.425Z,82.60
2022-10-13T02:58:01.534Z,80.10
2022-10-13T03:00:33.264Z,74.10
2022-10-13T03:03:04.965Z,78.00
2022-10-13T03:05:36.610Z,78.50
2022-10-13T03:08:09.274Z,73.40
2022-10-13T03:10:40.969Z,75.50
2022-10-13T03:13:12.631Z,74.10
2022-10-13T03:15:44.360Z,83.10
2022-10-13T03:18:16.104Z,75.30
2022-10-13T03:20:58.961Z,81.40
2022-10-13T03:23:30.810Z,83.50
2022-10-13T03:26:02.597Z,80.50
2022-10-13T03:28:34.438Z,77.90
2022-10-13T03:31:08.218Z,81.40
2022-10-13T03:33:40.687Z,84.80
2022-10-13T03:36:14.389Z,67.60
2022-10-13T03:38:47.193Z,74.80
2022-10-13T03:41:20.418Z,71.10
2022-10-13T03:43:55.200Z,72.00
2022-10-13T03:46:30.233Z,76.00
2022-10-13T03:49:02.111Z,74.60
2022-10-13T03:51:34.837Z,79.10
2022-10-13T03:54:06.725Z,79.40
2022-10-13T03:56:38.627Z,88.50
2022-10-13T03:59:12.637Z,73.80
2022-10-13T04:01:44.401Z,66.00
2022-10-13T04:04:16.091Z,66.50
2022-10-13T04:06:48.111Z,64.10
2022-10-13T04:09:20.193Z,64.60
2022-10-13T04:11:53.670Z,66.90
2022-10-13T04:14:25.398Z,69.40
2022-10-13T04:16:57.235Z,66.10
2022-10-13T04:19:28.942Z,65.90
2022-10-13T04:22:00.617Z,62.50
2022-10-13T04:24:32.306Z,63.80
2022-10-13T04:27:03.982Z,59.70
2022-10-13T04:29:35.629Z,63.00
2022-10-13T04:32:07.970Z,64.70
2022-10-13T04:34:39.858Z,67.70
2022-10-13T04:37:11.832Z,60.00
2022-10-13T04:39:43.598Z,61.80
2022-10-13T04:42:15.329Z,66.20
2022-10-13T04:44:46.975Z,73.90
2022-10-13T04:47:19.477Z,85.70
2022-10-13T04:49:51.406Z,90.30
2022-10-13T04:52:23.212Z,99.10
2022-10-13T04:54:58.598Z,63.50
2022-10-13T04:57:30.552Z,61.60
2022-10-13T05:00:02.294Z,63.90
2022-10-13T05:02:37.293Z,62.10
2022-10-13T05:05:10.927Z,58.40
2022-10-13T05:07:42.570Z,63.40
2022-10-13T05:10:14.997Z,66.30
2022-10-13T05:12:46.869Z,64.90
2022-10-13T05:15:18.771Z,58.80
2022-10-13T05:17:50.437Z,66.00
2022-10-13T05:20:22.164Z,73.60
2022-10-13T05:22:53.838Z,70.40
2022-10-13T05:25:26.734Z,68.30
2022-10-13T05:28:01.129Z,64.20
2022-10-13T05:30:32.832Z,64.20
2022-10-13T05:33:05.780Z,64.50
2022-10-13T05:35:37.513Z,64.20
2022-10-13T05:38:10.246Z,59.40
2022-10-13T05:40:41.927Z,60.50
2022-10-13T05:43:13.685Z,63.60
2022-10-13T05:45:45.370Z,62.20
2022-10-13T05:48:17.130Z,65.50
2022-10-13T05:50:48.819Z,68.30
2022-10-13T05:53:21.154Z,64.30
2022-10-13T05:55:54.619Z,63.50
2022-10-13T05:58:27.103Z,63.80
2022-10-13T06:00:59.420Z,70.00
2022-10-13T06:03:31.419Z,59.90
2022-10-13T06:06:03.536Z,62.30
2022-10-13T06:08:35.194Z,56.70
2022-10-13T06:11:08.319Z,57.20
2022-10-13T06:13:39.966Z,64.20
2022-10-13T06:16:11.717Z,67.50
2022-10-13T06:18:43.775Z,66.00
2022-10-13T06:21:15.530Z,73.60
2022-10-13T06:23:47.174Z,63.40
2022-10-13T06:26:18.917Z,67.20
2022-10-13T06:28:54.473Z,65.30
2022-10-13T06:31:28.940Z,56.60
2022-10-13T06:34:01.186Z,56.10
2022-10-13T06:36:32.864Z,65.50
2022-10-13T06:39:04.747Z,66.90
2022-10-13T06:41:36.464Z,64.10
2022-10-13T06:44:08.633Z,72.80
2022-10-13T06:46:40.301Z,72.80
2022-10-13T06:49:12.193Z,60.50
2022-10-13T06:51:44.254Z,60.30
2022-10-13T06:54:16.165Z,64.90
2022-10-13T06:56:48.190Z,63.50
2022-10-13T06:59:20.266Z,58.70
2022-10-13T07:01:53.564Z,49.40
2022-10-13T07:04:28.252Z,53.50
2022-10-13T07:07:03.056Z,52.60
2022-10-13T07:09:35.059Z,53.90
2022-10-13T07:12:07.599Z,54.40
2022-10-13T07:14:41.694Z,51.70
2022-10-13T07:17:15.877Z,50.50
2022-10-13T07:19:48.777Z,46.30
2022-10-13T07:22:20.638Z,46.30
2022-10-13T07:24:52.381Z,45.60
2022-10-13T07:27:25.588Z,47.50
2022-10-13T07:29:57.599Z,49.30
2022-10-13T07:32:29.522Z,48.20
2022-10-13T07:35:01.754Z,51.00
2022-10-13T07:37:33.453Z,51.80
2022-10-13T07:40:05.810Z,53.60
2022-10-13T07:42:37.899Z,51.60
2022-10-13T07:45:11.262Z,51.20
2022-10-13T07:47:42.986Z,52.80
2022-10-13T07:50:14.828Z,48.90
2022-10-13T07:52:46.736Z,48.80
2022-10-13T07:55:18.620Z,50.20
2022-10-13T07:57:50.299Z,53.30
2022-10-13T08:00:22.547Z,57.30
2022-10-13T08:02:54.301Z,67.80
2022-10-13T08:05:26.121Z,66.70
2022-10-13T08:07:58.582Z,63.70
2022-10-13T08:10:30.776Z,59.60
2022-10-13T08:13:02.566Z,50.70
2022-10-13T08:15:34.324Z,52.20
2022-10-13T08:18:06.384Z,54.10
2022-10-13T08:20:41.192Z,55.20
2022-10-13T08:23:15.739Z,52.60
2022-10-13T08:25:53.756Z,51.80
2022-10-13T08:28:28.525Z,48.50
2022-10-13T08:31:01.488Z,46.30
2022-10-13T08:33:33.429Z,45.90
2022-10-13T08:36:06.332Z,51.90
2022-10-13T08:38:38.025Z,47.10
2022-10-13T08:41:18.922Z,46.70
2022-10-13T08:44:39.654Z,46.90
2022-10-13T08:46:52.492Z,47.30
2022-10-13T08:49:24.273Z,48.30
2022-10-13T08:51:58.884Z,48.80
2022-10-13T08:54:30.689Z,51.10
2022-10-13T08:57:02.650Z,50.00
2022-10-13T08:59:34.585Z,51.60
2022-10-13T09:02:15.042Z,49.40
2022-10-13T09:04:50.946Z,47.40
2022-10-13T09:07:26.059Z,48.20
2022-10-13T09:09:58.059Z,44.60
2022-10-13T09:12:31.535Z,44.40
2022-10-13T09:15:06.465Z,47.00
2022-10-13T09:17:39.682Z,43.80
2022-10-13T09:20:22.078Z,42.30
2022-10-13T09:23:09.162Z,45.50
2022-10-13T09:25:44.906Z,42.00
2022-10-13T09:28:21.544Z,40.60
2022-10-13T09:31:04.668Z,46.70
2022-10-13T09:33:40.437Z,45.20
2022-10-13T09:36:15.339Z,40.40
2022-10-13T09:39:05.030Z,37.10
2022-10-13T09:41:38.279Z,37.30
2022-10-13T09:44:17.549Z,34.60
2022-10-13T09:46:52.597Z,36.50
2022-10-13T09:49:37.576Z,37.90
2022-10-13T09:52:20.023Z,40.20
2022-10-13T09:54:54.504Z,39.10
2022-10-13T09:57:33.899Z,39.10
2022-10-13T10:00:20.057Z,32.70
2022-10-13T10:02:59.195Z,32.50
2022-10-13T10:05:43.254Z,26.80
2022-10-13T10:08:28.833Z,26.30
2022-10-13T10:11:13.435Z,29.20
2022-10-13T10:13:46.158Z,33.60
2022-10-13T10:16:30.011Z,30.20
2022-10-13T10:19:07.583Z,32.10
2022-10-13T10:21:45.344Z,25.80
2022-10-13T10:24:27.955Z,29.60
2022-10-13T10:27:04.785Z,24.80
2022-10-13T10:29:46.669Z,27.10
2022-10-13T10:32:28.896Z,24.40
2022-10-13T10:35:05.370Z,21.40
2022-10-13T10:37:50.636Z,29.80
2022-10-13T10:40:34.208Z,25.90
2022-10-13T10:43:27.358Z,25.10
2022-10-13T10:46:00.446Z,23.50
2022-10-13T10:48:37.322Z,20.60
2022-10-13T10:51:12.026Z,19.50
2022-10-13T10:53:53.176Z,20.40
2022-10-13T10:56:33.497Z,20.60
2022-10-13T10:59:20.208Z,21.50
2022-10-13T11:02:01.344Z,18.00
2022-10-13T11:04:42.108Z,18.70
2022-10-13T11:07:35.680Z,18.40
2022-10-13T11:10:21.477Z,16.90
2022-10-13T11:13:22.109Z,15.20
2022-10-13T11:15:55.525Z,16.80
2022-10-13T11:19:10.657Z,14.30
2022-10-13T11:22:25.166Z,14.50
2022-10-13T11:25:28.585Z,14.40
2022-10-13T11:28:00.369Z,13.20
2022-10-13T11:30:50.600Z,15.70
2022-10-13T11:33:56.754Z,14.40
2022-10-13T11:36:49.880Z,13.60
2022-10-13T11:40:00.657Z,15.10
2022-10-13T11:42:49.265Z,13.20
2022-10-13T11:45:32.591Z,15.30
2022-10-13T11:48:37.329Z,14.90
2022-10-13T11:51:23.279Z,13.90
2022-10-13T11:54:01.610Z,13.40
2022-10-13T11:56:48.496Z,15.00
2022-10-13T11:59:26.686Z,15.00
2022-10-13T12:04:31.004Z,15.30
2022-10-13T12:07:05.337Z,15.60
2022-10-13T12:09:47.853Z,14.70
2022-10-13T12:12:22.643Z,14.50
2022-10-13T12:14:59.784Z,15.20
2022-10-13T12:17:38.946Z,16.60
2022-10-13T12:20:24.171Z,16.60
2022-10-13T12:22:57.479Z,17.20
2022-10-13T12:25:31.169Z,14.40
2022-10-13T12:28:03.421Z,13.90
2022-10-13T12:30:37.197Z,14.90
2022-10-13T12:33:26.040Z,17.80
2022-10-13T12:35:57.901Z,14.70
2022-10-13T12:38:29.858Z,15.10
2022-10-13T12:41:01.970Z,13.20
2022-10-13T12:43:33.912Z,16.50
2022-10-13T12:46:07.441Z,13.50
2022-10-13T12:48:40.448Z,14.70
2022-10-13T12:51:19.823Z,15.80
2022-10-13T12:53:51.797Z,15.50
2022-10-13T12:56:33.331Z,16.00
2022-10-13T12:59:06.551Z,15.70
2022-10-13T13:01:38.374Z,17.10
2022-10-13T13:04:29.169Z,14.80
2022-10-13T13:07:02.700Z,15.90
2022-10-13T13:09:35.856Z,14.20
2022-10-13T13:12:22.901Z,14.40
2022-10-13T13:14:55.992Z,14.10
2022-10-13T13:17:56.658Z,17.90
2022-10-13T13:20:29.997Z,14.50
2022-10-13T13:23:02.149Z,15.00
2022-10-13T13:25:34.351Z,15.60
2022-10-13T13:28:14.047Z,16.10
2022-10-13T13:30:46.605Z,13.90
2022-10-13T13:33:18.528Z,12.80
2022-10-13T13:35:51.277Z,13.90
2022-10-13T13:38:24.636Z,14.00
2022-10-13T13:40:58.986Z,15.80
2022-10-13T13:43:33.393Z,12.80
2022-10-13T13:46:06.858Z,14.90
2022-10-13T13:48:38.761Z,14.30
2022-10-13T13:51:10.867Z,13.00
2022-10-13T13:53:42.867Z,13.30
2022-10-13T13:56:16.264Z,15.30
2022-10-13T13:58:48.167Z,12.70
2022-10-13T14:01:19.943Z,17.70
2022-10-13T14:03:52.051Z,13.00
2022-10-13T14:06:24.289Z,16.10
2022-10-13T14:08:58.144Z,17.50
2022-10-13T14:11:30.082Z,14.20
2022-10-13T14:14:02.560Z,14.00
2022-10-13T14:16:34.585Z,15.90
2022-10-13T14:19:08.495Z,13.90
2022-10-13T14:21:40.636Z,13.70
2022-10-13T14:24:15.264Z,13.10
2022-10-13T14:26:47.232Z,12.10
2022-10-13T14:29:19.084Z,13.70
2022-10-13T14:31:50.782Z,16.40
2022-10-13T14:34:22.509Z,16.20
2022-10-13T14:36:54.387Z,13.10
2022-10-13T14:39:26.167Z,14.10
2022-10-13T14:41:57.888Z,13.50
2022-10-13T14:44:29.649Z,13.40
2022-10-13T14:47:01.779Z,15.90
2022-10-13T14:49:33.525Z,13.60
2022-10-13T14:52:06.414Z,14.20
2022-10-13T14:54:41.244Z,13.00
2022-10-13T14:57:16.476Z,13.50
2022-10-13T14:59:48.608Z,15.90
2022-10-13T15:02:20.391Z,15.70
2022-10-13T15:04:57.979Z,16.30
2022-10-13T15:07:29.701Z,14.10
2022-10-13T15:10:05.358Z,14.10
2022-10-13T15:12:37.871Z,17.70
2022-10-13T15:15:10.897Z,19.20
2022-10-13T15:17:42.866Z,18.00
2022-10-13T15:20:14.795Z,18.40
2022-10-13T15:22:47.869Z,16.70
2022-10-13T15:25:20.088Z,15.00
2022-10-13T15:27:54.461Z,17.30
2022-10-13T15:30:26.301Z,18.60
2022-10-13T15:32:57.966Z,18.80
2022-10-13T15:35:32.605Z,15.50
2022-10-13T15:38:04.318Z,20.70
2022-10-13T15:40:39.594Z,17.20
2022-10-13T15:43:11.278Z,19.90
2022-10-13T15:45:43.027Z,18.20
2022-10-13T15:48:16.003Z,21.10
2022-10-13T15:50:47.744Z,19.90
2022-10-13T15:53:20.229Z,18.10
2022-10-13T15:55:52.263Z,20.60
2022-10-13T15:58:24.008Z,18.90
2022-10-13T16:00:55.770Z,19.80
2022-10-13T16:03:29.881Z,18.60
2022-10-13T16:06:05.962Z,21.10
2022-10-13T16:08:40.704Z,18.70
2022-10-13T16:11:14.265Z,17.50
2022-10-13T16:13:48.186Z,18.70
2022-10-13T16:16:20.990Z,17.60
2022-10-13T16:18:52.736Z,24.30
2022-10-13T16:21:27.083Z,19.90
2022-10-13T16:24:00.116Z,27.10
2022-10-13T16:26:31.929Z,26.00
2022-10-13T16:29:03.857Z,19.20
2022-10-13T16:31:35.918Z,19.50
2022-10-13T16:34:07.666Z,20.00
2022-10-13T16:36:39.352Z,24.50
2022-10-13T16:39:11.077Z,28.20
2022-10-13T16:41:44.003Z,22.30
2022-10-13T16:44:16.935Z,24.70
2022-10-13T16:46:49.841Z,22.20
2022-10-13T16:49:21.599Z,23.30
2022-10-13T16:51:53.414Z,22.10
2022-10-13T16:54:25.132Z,27.80
2022-10-13T16:56:56.905Z,25.60
2022-10-13T16:59:29.857Z,28.60
2022-10-13T17:02:01.526Z,28.30
2022-10-13T17:04:34.299Z,27.50
2022-10-13T17:07:05.946Z,33.80
2022-10-13T17:09:37.706Z,36.60
2022-10-13T17:12:09.882Z,37.10
2022-10-13T17:14:41.891Z,48.90
2022-10-13T17:17:13.771Z,52.40
2022-10-13T17:19:45.452Z,53.10
2022-10-13T17:22:17.154Z,50.80
2022-10-13T17:24:49.511Z,50.80
2022-10-13T17:27:21.469Z,53.90
2022-10-13T17:29:54.932Z,50.10
2022-10-13T17:32:26.678Z,57.20
2022-10-13T17:34:59.038Z,63.30
2022-10-13T17:37:30.721Z,70.90
2022-10-13T17:40:02.548Z,74.40
2022-10-13T17:42:34.339Z,61.90
2022-10-13T17:45:07.015Z,62.70
2022-10-13T17:47:39.019Z,73.30
2022-10-13T17:50:12.179Z,71.30
2022-10-13T17:52:44.681Z,70.70
2022-10-13T17:55:17.337Z,83.30
2022-10-13T17:57:49.671Z,81.70
2022-10-13T18:00:22.100Z,96.00
2022-10-13T18:02:55.927Z,96.30
2022-10-13T18:05:27.826Z,110.60
2022-10-13T18:08:00.603Z,93.90
2022-10-13T18:10:50.924Z,92.30
2022-10-13T18:13:25.323Z,92.60
2022-10-13T18:15:57.110Z,91.20
2022-10-13T18:18:29.014Z,96.90
2022-10-13T18:21:03.783Z,97.70
2022-10-13T18:23:36.867Z,103.30
2022-10-13T18:26:12.023Z,98.90
2022-10-13T18:28:44.969Z,95.10
2022-10-13T18:31:24.963Z,94.60
2022-10-13T18:34:00.530Z,97.50
2022-10-13T18:36:36.264Z,92.50
2022-10-13T18:39:14.093Z,84.70
2022-10-13T18:41:48.205Z,87.30
2022-10-13T18:44:20.506Z,80.60
2022-10-13T18:46:54.971Z,87.90
2022-10-13T18:49:31.705Z,85.30
2022-10-13T18:52:04.305Z,91.50
2022-10-13T18:54:36.043Z,90.00
2022-10-13T18:57:08.424Z,93.10
2022-10-13T18:59:40.445Z,105.40
2022-10-13T19:02:16.500Z,104.00
2022-10-13T19:04:48.236Z,94.80
2022-10-13T19:07:21.534Z,98.50
2022-10-13T19:09:54.328Z,85.90
2022-10-13T19:12:26.443Z,93.60
2022-10-13T19:14:58.903Z,91.30
2022-10-13T19:17:30.657Z,102.30
2022-10-13T19:20:02.483Z,115.00
2022-10-13T19:22:34.229Z,137.60
2022-10-13T19:25:07.317Z,132.60
2022-10-13T19:27:39.480Z,130.30
2022-10-13T19:30:15.373Z,137.30
2022-10-13T19:32:47.717Z,123.40
2022-10-13T19:35:19.513Z,135.30
2022-10-13T19:37:51.456Z,118.60
2022-10-13T19:40:23.508Z,135.70
2022-10-13T19:42:55.405Z,141.50
2022-10-13T19:45:30.140Z,151.60
2022-10-13T19:48:02.021Z,171.00
2022-10-13T19:50:35.321Z,163.40
2022-10-13T19:53:07.412Z,154.30
2022-10-13T19:55:41.514Z,140.10
2022-10-13T19:58:14.224Z,136.80
2022-10-13T20:00:46.887Z,138.70
2022-10-13T20:03:20.008Z,144.60
2022-10-13T20:05:54.488Z,152.00
2022-10-13T20:08:26.180Z,148.00
2022-10-13T20:10:57.914Z,156.50
2022-10-13T20:13:29.631Z,166.00
2022-10-13T20:16:10.134Z,167.80
2022-10-13T20:18:42.635Z,158.20
2022-10-13T20:21:15.658Z,151.10
2022-10-13T20:23:47.386Z,147.10
2022-10-13T20:26:19.908Z,137.10
2022-10-13T20:28:53.228Z,136.50
2022-10-13T20:31:27.609Z,118.90
2022-10-13T20:34:00.233Z,109.60
2022-10-13T20:36:38.859Z,122.20
2022-10-13T20:39:11.134Z,121.30
2022-10-13T20:41:42.969Z,117.30
2022-10-13T20:44:14.754Z,119.30
2022-10-13T20:46:46.522Z,122.90
2022-10-13T20:49:18.254Z,125.00
2022-10-13T20:51:50.046Z,116.80
2022-10-13T20:54:23.764Z,110.60
2022-10-13T20:56:56.268Z,111.00
2022-10-13T20:59:28.093Z,110.20
2022-10-13T21:01:59.842Z,109.50
2022-10-13T21:04:32.228Z,119.70
2022-10-13T21:07:04.526Z,122.40
2022-10-13T21:09:37.136Z,122.70
2022-10-13T21:12:09.489Z,117.70
2022-10-13T21:14:41.437Z,113.90
2022-10-13T21:17:13.583Z,102.50
2022-10-13T21:19:46.052Z,109.60
2022-10-13T21:22:17.966Z,109.20
2022-10-13T21:24:49.912Z,110.80
2022-10-13T21:27:21.994Z,113.80
2022-10-13T21:29:54.242Z,114.90
2022-10-13T21:32:26.741Z,120.30
2022-10-13T21:34:58.969Z,125.90
2022-10-13T21:37:34.004Z,128.20
2022-10-13T21:40:07.187Z,123.40
2022-10-13T21:42:39.102Z,111.90
2022-10-13T21:45:12.685Z,116.30
2022-10-13T21:47:44.647Z,119.30
2022-10-13T21:50:16.415Z,117.40
2022-10-13T21:52:49.816Z,116.80
2022-10-13T21:55:21.635Z,126.50
2022-10-13T21:57:57.564Z,124.70
2022-10-13T22:00:34.243Z,114.10
2022-10-13T22:03:06.070Z,127.30
2022-10-13T22:05:38.571Z,116.50
2022-10-13T22:08:10.965Z,112.40
2022-10-13T22:10:42.648Z,115.80
2022-10-13T22:13:14.375Z,104.10
2022-10-13T22:15:46.094Z,103.70
2022-10-13T22:18:20.464Z,105.80
2022-10-13T22:20:52.474Z,103.80
2022-10-13T22:23:26.555Z,111.10
2022-10-13T22:25:58.678Z,101.30
2022-10-13T22:28:34.693Z,107.30
2022-10-13T22:31:10.181Z,100.50
2022-10-13T22:33:43.249Z,101.10
2022-10-13T22:36:17.942Z,97.30
2022-10-13T22:38:51.089Z,96.30
2022-10-13T22:41:23.162Z,98.60
2022-10-13T22:43:56.330Z,101.90
2022-10-13T22:46:30.362Z,96.50
2022-10-13T22:49:02.308Z,109.30
2022-10-13T22:51:36.314Z,96.70
2022-10-13T22:54:08.157Z,98.70
2022-10-13T22:56:41.686Z,95.50
2022-10-13T22:59:14.142Z,96.30
2022-10-13T23:01:45.800Z,94.50
2022-10-13T23:04:17.553Z,84.40
2022-10-13T23:06:49.226Z,82.70
2022-10-13T23:09:20.919Z,84.40
2022-10-13T23:11:55.148Z,93.30
2022-10-13T23:14:32.643Z,83.50
2022-10-13T23:17:04.496Z,89.00
2022-10-13T23:19:36.424Z,94.70
2022-10-13T23:22:08.191Z,86.10
2022-10-13T23:24:40.218Z,106.60
2022-10-13T23:27:12.726Z,116.00
2022-10-13T23:29:44.483Z,106.20
2022-10-13T23:32:16.246Z,112.00
2022-10-13T23:34:48.009Z,89.90
2022-10-13T23:37:20.641Z,89.00
2022-10-13T23:39:52.702Z,101.00
2022-10-13T23:42:24.485Z,105.90
2022-10-13T23:44:56.244Z,101.40
2022-10-13T23:47:27.983Z,123.40
2022-10-13T23:49:59.643Z,146.90
2022-10-13T23:52:31.399Z,149.60
2022-10-13T23:55:03.308Z,122.60
2022-10-13T23:57:35.040Z,124.20
